Minor Hill, Tennessee
Current Conditions -  °F | °C
As of 12:53 PM on Sunday 23 Nov 2014 (Local Time) from KDCU Reporting Station
Light Rain Light Rain  
Wind Chill: 56°   Ceiling: 1300
Heat Index: 56°   Visibility: 10mi
Dew Point: 53°   Wind: 14mph
Humidity: 90%   Direction: 120°ESE
Pressure: 29.59"   Gusts: NA
Location:  35.06°N, 87.16°W
Report Text: KDCU 231853Z AUTO 12012KT 10SM -RA OVC013 13/12 A2959 RMK AO2 SLP018 P0002 T01330117
Loading
Personal Weather Stations






























Interactive Weather Map New forecast layout! Learn more

10-Day Weather Forecast

Advertisements
Track Severe Weather on mobile